This is the latest recevied weather packets stored in our database for station/object SP6W-10. If no packets are shown the sender has not sent any weather packets the latest 10 day(s).
| Time | Temp. | Humidity | Pressure | Rain* | Wind** | Luminosity | Snow |
|---|---|---|---|---|---|---|---|
| 1777691581 | 24.44° C | 23% | 1025.6 hPa | - | - | - | - |
| 1777689781 | 25° C | 22% | 1025.6 hPa | - | - | - | - |
| 1777666373 | 28.33° C | 21% | 1026.5 hPa | - | - | - | - |
| 1777664573 | 28.89° C | 21% | 1026.4 hPa | - | - | - | - |
| 1777662773 | 27.78° C | 21% | 1026.4 hPa | - | - | - | - |
| 1777655572 | 31.67° C | 18% | 1025.8 hPa | - | - | - | - |
| 1777648372 | 31.11° C | 17% | 1026.1 hPa | - | - | - | - |
| 1777646577 | 30.56° C | 18% | 1026.3 hPa | - | - | - | - |
| 1777644775 | 30° C | 18% | 1026.5 hPa | - | - | - | - |
| 1777641172 | 28.89° C | 19% | 1026.9 hPa | - | - | - | - |
| 1777633971 | 26.67° C | 21% | 1028.1 hPa | - | - | - | - |
| 1777630374 | 25.56° C | 22% | 1028.5 hPa | - | - | - | - |
| 1777628574 | 25.56° C | 21% | 1028.7 hPa | - | - | - | - |
| 1777626778 | 25.56° C | 21% | 1028.8 hPa | - | - | - | - |
| 1777623182 | 25.56° C | 21% | 1029 hPa | - | - | - | - |
| 1777619578 | 25° C | 23% | 1029.1 hPa | - | - | - | - |
| 1777612379 | 25° C | 20% | 1029.1 hPa | - | - | - | - |
| 1777610578 | 25° C | 20% | 1029.1 hPa | - | - | - | - |
| 1777605179 | 25.56° C | 20% | 1028.8 hPa | - | - | - | - |
| 1777569180 | 28.89° C | 17% | 1029.2 hPa | - | - | - | - |
| 1777563778 | 29.44° C | 17% | 1029.4 hPa | - | - | - | - |
| 1777538577 | 23.33° C | 23% | 1032.3 hPa | - | - | - | - |
| 1777533176 | 23.33° C | 21% | 1032.5 hPa | - | - | - | - |
| 1777525976 | 23.33° C | 20% | 1032.3 hPa | - | - | - | - |
| 1777522375 | 23.33° C | 18% | 1032 hPa | - | - | - | - |
* Rain since midnight (hover to see other rain measurements)
** Current wind speed in m/s (hover to see current wind gust speed)